Accueil
METAR-TAF:

METAR-TAF

Aéroports :

Exeter, Angleterre

Aéroport international d'Exeter

latitude: 50-44N, longitude: 003-25W, altitude: 30 m

Observation

Le bulletin a été fait il y a 26 minutes, à 08:20 UTC
Vent 2 kt de direction variable
Température 15°C
Humidité 82%
Pression 1021 hPa
Visibilité 10 km ou plus
Nuages fragmentés à une hauteur de 1500 ft

METAR: EGTE 230820Z VRB02KT 9999 BKN015 15/12 Q1021

Heure: 09:46 (08:46 UTC)

Prévision

Le bulletin a été fait il y a 45 minutes, à 08:01 UTC
Prévision valable du 23 à 09 UTC au 23 à 18 UTC
Vent 5 kt de ouest/nord-ouest
Visibilité 10 km ou plus
Nuages épars à une hauteur de 1500 ft
Temporairement
du 23 à 09 UTC au 23 à 12 UTC
Nuages fragmentés à une hauteur de 1200 ft

TAF: EGTE 230801Z 2309/2318 30005KT 9999 SCT015 TEMPO 2309/2312 BKN012

Observations et prévisions météorologiques de plus de 4000 aéroports (messages METAR et TAF).

Les stations disponibles sont représentées par des disques jaunes et rouges sur la carte.

Passer la souris dessus pour voir le nom de la station.

Cliquer dessus pour voir les observations et prévisions météorologiques.

Pour changer de carte: cliquez sur les boutons verts avec une croix noire pour zoomer, sur le bouton vert avec un tiret pour effectuer un zoom arrière, ou sur les flèches vertes pour les cartes adjacentes.


METAR-TAF: